Погода Тангвана неделю

Рио-де-Жанейро, Бразилия

22 - 28 июля
  • 22июля
    Сегодня
    +15°
    +27°
    Ясно и безоблачно
    ВремяПогодаТемператураВлажностьДавлениеВетер, м/сВероятность осадков
    00:00Ясно и безоблачно+16°C94 %756 мм1.6 м/с5 %
    03:00Ясно и безоблачно+15°C93 %755 мм2.0 м/с5 %
    06:00Ясно и безоблачно+14°C95 %755 мм1.4 м/с5 %
    09:00Ясно и безоблачно+22°C73 %756 мм0.7 м/с5 %
    12:00Ясно и безоблачно+26°C51 %756 мм1.6 м/с5 %
    15:00Ясно и безоблачно+27°C49 %755 мм1.9 м/с5 %
    18:00Ясно и безоблачно+19°C82 %756 мм1.5 м/с5 %
    21:00Ясно и безоблачно+17°C86 %757 мм1.1 м/с5 %
  • 23июля
    Вторник
    +14°
    +25°
    Ясно и безоблачно
    ВремяПогодаТемператураВлажностьДавлениеВетер, м/сВероятность осадков
    00:00Ясно и безоблачно+16°C88 %757 мм1.3 м/с5 %
    03:00Практически безоблачно+16°C97 %756 мм0.8 м/с5 %
    06:00Облачно с прояснениями+16°C97 %757 мм0.9 м/с2 %
    09:00Ясно и безоблачно+20°C83 %758 мм1.0 м/с2 %
    12:00Ясно и безоблачно+24°C62 %758 мм1.3 м/с5 %
    15:00Ясно и безоблачно+25°C58 %757 мм1.2 м/с5 %
    18:00Ясно и безоблачно+18°C88 %757 мм2.0 м/с5 %
    21:00Ясно и безоблачно+16°C95 %758 мм1.2 м/с5 %
  • 24июля
    Среда
    +15°
    +27°
    Ясно и безоблачно
    ВремяПогодаТемператураВлажностьДавлениеВетер, м/сВероятность осадков
    00:00Ясно и безоблачно+16°C95 %758 мм1.4 м/с5 %
    03:00Ясно и безоблачно+15°C96 %757 мм1.3 м/с5 %
    06:00Практически безоблачно+14°C97 %758 мм1.3 м/с5 %
    09:00Ясно и безоблачно+21°C78 %759 мм1.2 м/с5 %
    12:00Ясно и безоблачно+26°C53 %758 мм2.3 м/с5 %
    15:00Ясно и безоблачно+27°C50 %756 мм1.4 м/с5 %
    18:00Ясно и безоблачно+21°C73 %757 мм2.3 м/с5 %
    21:00Ясно и безоблачно+18°C92 %758 мм3.2 м/с5 %
  • 25июля
    Четверг
    +16°
    +29°
    Ясно и безоблачно
    ВремяПогодаТемператураВлажностьДавлениеВетер, м/сВероятность осадков
    00:00Практически безоблачно+18°C95 %757 мм2.9 м/с5 %
    03:00Ясно и безоблачно+17°C94 %756 мм2.3 м/с5 %
    06:00Ясно и безоблачно+15°C93 %756 мм1.7 м/с5 %
    09:00Ясно и безоблачно+22°C71 %757 мм1.1 м/с5 %
    12:00Ясно и безоблачно+27°C50 %755 мм2.2 м/с5 %
    15:00Ясно и безоблачно+28°C46 %753 мм1.0 м/с5 %
    18:00Ясно и безоблачно+21°C77 %753 мм1.8 м/с5 %
    21:00Ясно и безоблачно+19°C81 %754 мм1.8 м/с5 %
  • 26июля
    Пятница
    +18°
    +31°
    Практически безоблачно
    ВремяПогодаТемператураВлажностьДавлениеВетер, м/сВероятность осадков
    00:00Ясно и безоблачно+18°C80 %753 мм2.1 м/с5 %
    03:00Ясно и безоблачно+17°C83 %752 мм1.5 м/с5 %
    06:00Ясно и безоблачно+17°C74 %753 мм1.4 м/с5 %
    09:00Ясно и безоблачно+25°C55 %754 мм1.1 м/с5 %
    12:00Ясно и безоблачно+30°C37 %753 мм1.4 м/с5 %
    15:00Практически безоблачно+29°C40 %752 мм1.7 м/с5 %
    18:00Облачно с прояснениями+21°C65 %753 мм2.1 м/с5 %
    21:00Облачно с прояснениями+21°C64 %754 мм2.0 м/с5 %
Мы используем cookies
Соглашаюсь